Terminal Aerodrome Forecast
Issued by NWS

Home | Current Version | Previous Version | Graphics & Text | Print | Product List | Glossary Off
Versions: 1 2 3 4 5 6 7 8 9 10 11 12 13 14 15 16 17 18 19 20 21 22 23 24 25

029
FTUS43 KLOT 231132
TAFDPA
TAF
KDPA 231132Z 2312/2412 VRB03KT P6SM FEW030 SCT050
     FM231400 30010KT P6SM SCT070
     FM232000 31010KT P6SM VCSH SCT040
     FM232200 36005KT P6SM SCT040=

USA.gov is the U.S. government's official web portal to all federal, state and local government web resources and services.